Terminal Aerodrome Forecast
Issued by NWS

Home | Current Version | Previous Version | Text Only | Print | Product List | Glossary On
Versions: 1 2 3 4 5 6 7 8 9 10 11 12 13 14 15 16 17 18
831
FTUS44 KSJT 141131
TAFJCT
TAF
KJCT 141131Z 1412/1512 19012G19KT P6SM BKN015
      TEMPO 1412/1416 19009KT SCT020
     FM141600 20013G20KT P6SM BKN250
     FM141900 23009KT P6SM BKN250
     FM150300 35005KT P6SM SCT250=

USA.gov is the U.S. government's official web portal to all federal, state and local government web resources and services.